createdAt,value
2023-02-23T00:00:35.282Z,9.62
2023-02-23T00:01:35.322Z,9.61
2023-02-23T00:02:35.292Z,9.61
2023-02-23T00:03:35.281Z,9.62
2023-02-23T00:04:35.341Z,9.62
2023-02-23T00:05:35.288Z,9.62
2023-02-23T00:06:35.268Z,9.64
2023-02-23T00:07:35.217Z,9.62
2023-02-23T00:08:35.185Z,9.62
2023-02-23T00:09:35.384Z,9.64
2023-02-23T00:10:35.178Z,9.64
2023-02-23T00:11:35.224Z,9.65
2023-02-23T00:12:35.173Z,9.64
2023-02-23T00:13:35.150Z,9.64
2023-02-23T00:14:35.165Z,9.66
2023-02-23T00:15:35.172Z,9.65
2023-02-23T00:16:35.122Z,9.65
2023-02-23T00:17:35.114Z,9.64
2023-02-23T00:18:35.067Z,9.64
2023-02-23T00:19:35.074Z,9.62
2023-02-23T00:20:35.119Z,9.64
2023-02-23T00:21:35.074Z,9.61
2023-02-23T00:22:35.088Z,9.61
2023-02-23T00:23:35.060Z,9.59
2023-02-23T00:24:35.021Z,9.58
2023-02-23T00:25:35.020Z,9.55
2023-02-23T00:26:35.189Z,9.55
2023-02-23T00:27:35.012Z,9.55
2023-02-23T00:28:34.990Z,9.51
2023-02-23T00:29:35.023Z,9.48
2023-02-23T00:30:35.030Z,9.48
2023-02-23T00:31:35.094Z,9.48
2023-02-23T00:32:35.212Z,9.47
2023-02-23T00:33:34.986Z,9.47
2023-02-23T00:34:34.942Z,9.43
2023-02-23T00:35:34.955Z,9.44
2023-02-23T00:36:34.946Z,9.41
2023-02-23T00:37:34.889Z,9.43
2023-02-23T00:38:34.886Z,9.44
2023-02-23T00:39:34.902Z,9.44
2023-02-23T00:40:34.895Z,9.43
2023-02-23T00:41:34.846Z,9.43
2023-02-23T00:42:34.958Z,9.44
2023-02-23T00:43:34.835Z,9.46
2023-02-23T00:44:34.851Z,9.46
2023-02-23T00:45:34.856Z,9.46
2023-02-23T00:46:34.823Z,9.44
2023-02-23T00:47:34.806Z,9.44
2023-02-23T00:48:34.831Z,9.46
2023-02-23T00:49:34.830Z,9.44
2023-02-23T00:50:34.870Z,9.41
2023-02-23T00:51:34.853Z,9.40
2023-02-23T00:52:34.773Z,9.41
2023-02-23T00:53:34.753Z,9.39
2023-02-23T00:54:34.781Z,9.39
2023-02-23T00:55:34.751Z,9.39
2023-02-23T00:56:34.769Z,9.39
2023-02-23T00:57:34.704Z,9.39
2023-02-23T00:58:34.694Z,9.40
2023-02-23T00:59:34.666Z,9.40
2023-02-23T01:00:34.688Z,9.39
2023-02-23T01:01:34.700Z,9.37
2023-02-23T01:02:34.765Z,9.37
2023-02-23T01:03:34.681Z,9.37
2023-02-23T01:04:34.678Z,9.37
2023-02-23T01:05:34.705Z,9.37
2023-02-23T01:06:34.636Z,9.34
2023-02-23T01:07:34.590Z,9.34
2023-02-23T01:08:34.629Z,9.34
2023-02-23T01:09:34.574Z,9.32
2023-02-23T01:10:34.555Z,9.31
2023-02-23T01:11:34.624Z,9.29
2023-02-23T01:12:34.637Z,9.28
2023-02-23T01:13:34.572Z,9.26
2023-02-23T01:14:34.526Z,9.25
2023-02-23T01:15:34.517Z,9.25
2023-02-23T01:16:34.515Z,9.23
2023-02-23T01:17:34.466Z,9.22
2023-02-23T01:18:34.494Z,9.22
2023-02-23T01:19:34.466Z,9.21
2023-02-23T01:20:34.462Z,9.18
2023-02-23T01:21:34.491Z,9.16
2023-02-23T01:22:34.416Z,9.13
2023-02-23T01:23:34.429Z,9.10
2023-02-23T01:24:34.469Z,9.08
2023-02-23T01:25:34.443Z,9.08
2023-02-23T01:26:34.444Z,9.06
2023-02-23T01:27:34.402Z,9.06
2023-02-23T01:28:34.368Z,9.04
2023-02-23T01:29:34.385Z,9.04
2023-02-23T01:30:34.417Z,9.02
2023-02-23T01:31:34.562Z,9.03
2023-02-23T01:32:34.348Z,9.02
2023-02-23T01:33:34.315Z,9.02
2023-02-23T01:34:34.350Z,8.99
2023-02-23T01:35:34.300Z,8.99
2023-02-23T01:36:34.292Z,8.97
2023-02-23T01:37:34.325Z,8.97
2023-02-23T01:38:34.351Z,8.95
2023-02-23T01:39:34.266Z,8.95
2023-02-23T01:40:34.326Z,8.94
2023-02-23T01:41:34.308Z,8.92
2023-02-23T01:42:34.286Z,8.92
2023-02-23T01:43:34.233Z,8.92
2023-02-23T01:44:34.227Z,8.92
2023-02-23T01:45:34.221Z,8.91
2023-02-23T01:46:34.236Z,8.92
2023-02-23T01:47:34.210Z,8.92
2023-02-23T01:48:34.183Z,8.91
2023-02-23T01:49:34.176Z,8.91
2023-02-23T01:50:34.161Z,8.91
2023-02-23T01:51:34.177Z,8.91
2023-02-23T01:52:34.152Z,8.91
2023-02-23T01:53:34.138Z,8.89
2023-02-23T01:54:34.152Z,8.89
2023-02-23T01:55:34.106Z,8.92
2023-02-23T01:56:34.067Z,8.91
2023-02-23T01:57:34.064Z,8.88
2023-02-23T01:58:34.099Z,8.87
2023-02-23T01:59:34.101Z,8.85
2023-02-23T02:00:34.055Z,8.85
2023-02-23T02:01:34.174Z,8.84
2023-02-23T02:02:34.142Z,8.84
2023-02-23T02:03:34.012Z,8.84
2023-02-23T02:04:34.106Z,8.85
2023-02-23T02:05:33.979Z,8.82
2023-02-23T02:06:34.015Z,8.82
2023-02-23T02:07:33.986Z,8.82
2023-02-23T02:08:33.981Z,8.81
2023-02-23T02:09:33.953Z,8.79
2023-02-23T02:10:34.099Z,8.79
2023-02-23T02:11:33.914Z,8.78
2023-02-23T02:12:33.931Z,8.78
2023-02-23T02:13:33.897Z,8.76
2023-02-23T02:14:33.908Z,8.76
2023-02-23T02:15:33.887Z,8.78
2023-02-23T02:16:33.950Z,8.74
2023-02-23T02:17:33.874Z,8.74
2023-02-23T02:18:33.877Z,8.74
2023-02-23T02:19:33.856Z,8.78
2023-02-23T02:20:33.874Z,8.74
2023-02-23T02:21:33.918Z,8.74
2023-02-23T02:22:33.802Z,8.74
2023-02-23T02:23:33.801Z,8.73
2023-02-23T02:24:33.830Z,8.73
2023-02-23T02:25:33.798Z,8.73
2023-02-23T02:26:33.782Z,8.74
2023-02-23T02:27:33.803Z,8.74
2023-02-23T02:28:33.831Z,8.74
2023-02-23T02:29:33.782Z,8.73
2023-02-23T02:30:33.747Z,8.73
2023-02-23T02:31:33.768Z,8.73
2023-02-23T02:32:33.782Z,8.73
2023-02-23T02:33:33.711Z,8.73
2023-02-23T02:34:33.704Z,8.71
2023-02-23T02:35:33.739Z,8.73
2023-02-23T02:36:33.697Z,8.71
2023-02-23T02:37:33.681Z,8.71
2023-02-23T02:38:33.690Z,8.73
2023-02-23T02:39:33.660Z,8.73
2023-02-23T02:40:33.672Z,8.71
2023-02-23T02:41:33.702Z,8.73
2023-02-23T02:42:33.646Z,8.71
2023-02-23T02:43:33.603Z,8.71
2023-02-23T02:44:33.588Z,8.69
2023-02-23T02:45:33.591Z,8.70
2023-02-23T02:46:33.588Z,8.70
2023-02-23T02:47:33.557Z,8.69
2023-02-23T02:48:33.554Z,8.69
2023-02-23T02:49:33.538Z,8.70
2023-02-23T02:50:33.544Z,8.70
2023-02-23T02:51:33.568Z,8.71
2023-02-23T02:52:33.545Z,8.71
2023-02-23T02:53:33.516Z,8.73
2023-02-23T02:54:33.486Z,8.73
2023-02-23T02:55:33.474Z,8.73
2023-02-23T02:56:33.571Z,8.74
2023-02-23T02:57:33.470Z,8.74
2023-02-23T02:58:33.466Z,8.74
2023-02-23T02:59:33.465Z,8.76
2023-02-23T03:00:33.431Z,8.78
2023-02-23T03:01:33.462Z,8.78
2023-02-23T03:02:33.545Z,8.78
2023-02-23T03:03:33.431Z,8.78
2023-02-23T03:04:33.400Z,8.78
2023-02-23T03:05:33.450Z,8.79
2023-02-23T03:06:33.395Z,8.79
2023-02-23T03:07:33.417Z,8.79
2023-02-23T03:08:33.352Z,8.78
2023-02-23T03:09:33.559Z,8.79
2023-02-23T03:10:33.327Z,8.78
2023-02-23T03:11:33.342Z,8.79
2023-02-23T03:12:33.300Z,8.78
2023-02-23T03:13:33.359Z,8.78
2023-02-23T03:14:33.287Z,8.76
2023-02-23T03:15:33.304Z,8.76
2023-02-23T03:16:33.352Z,8.74
2023-02-23T03:17:33.259Z,8.76
2023-02-23T03:18:33.258Z,8.76
2023-02-23T03:19:33.257Z,8.78
2023-02-23T03:20:33.253Z,8.76
2023-02-23T03:21:33.219Z,8.76
2023-02-23T03:22:33.214Z,8.79
2023-02-23T03:23:33.253Z,8.76
2023-02-23T03:24:33.186Z,8.79
2023-02-23T03:25:33.193Z,8.79
2023-02-23T03:26:33.202Z,8.81
2023-02-23T03:27:33.250Z,8.79
2023-02-23T03:28:33.232Z,8.82
2023-02-23T03:29:33.182Z,8.81
2023-02-23T03:30:33.149Z,8.82
2023-02-23T03:31:33.328Z,8.81
2023-02-23T03:32:33.235Z,8.82
2023-02-23T03:33:33.087Z,8.85
2023-02-23T03:34:33.108Z,8.84
2023-02-23T03:35:33.087Z,8.85
2023-02-23T03:36:33.072Z,8.87
2023-02-23T03:37:33.051Z,8.88
2023-02-23T03:38:33.098Z,8.88
2023-02-23T03:39:33.045Z,8.91
2023-02-23T03:40:33.010Z,8.87
2023-02-23T03:41:33.037Z,8.88
2023-02-23T03:42:33.037Z,8.88
2023-02-23T03:43:32.985Z,8.87
2023-02-23T03:44:33.001Z,8.87
2023-02-23T03:45:33.001Z,8.85
2023-02-23T03:46:32.983Z,8.87
2023-02-23T03:47:32.975Z,8.85
2023-02-23T03:48:32.954Z,8.82
2023-02-23T03:49:32.982Z,8.82
2023-02-23T03:50:32.926Z,8.81
2023-02-23T03:51:32.935Z,8.81
2023-02-23T03:52:32.971Z,8.79
2023-02-23T03:53:32.896Z,8.79
2023-02-23T03:54:32.884Z,8.78
2023-02-23T03:55:32.881Z,8.78
2023-02-23T03:56:32.901Z,8.78
2023-02-23T03:57:32.866Z,8.79
2023-02-23T03:58:32.841Z,8.78
2023-02-23T03:59:32.839Z,8.78
2023-02-23T04:00:32.813Z,8.76
2023-02-23T04:01:32.829Z,8.76
2023-02-23T04:02:32.813Z,8.76
2023-02-23T04:03:32.924Z,8.74
2023-02-23T04:04:32.782Z,8.74
2023-02-23T04:05:32.758Z,8.74
2023-02-23T04:06:32.786Z,8.73
2023-02-23T04:07:32.739Z,8.73
2023-02-23T04:08:32.772Z,8.73
2023-02-23T04:09:32.780Z,8.71
2023-02-23T04:10:32.764Z,8.71
2023-02-23T04:11:32.741Z,8.71
2023-02-23T04:12:32.700Z,8.71
2023-02-23T04:13:32.727Z,8.70
2023-02-23T04:14:32.696Z,8.70
2023-02-23T04:15:32.674Z,8.71
2023-02-23T04:16:32.693Z,8.70
2023-02-23T04:17:32.643Z,8.71
2023-02-23T04:18:32.692Z,8.74
2023-02-23T04:19:32.657Z,8.73
2023-02-23T04:20:32.753Z,8.74
2023-02-23T04:21:32.591Z,8.73
2023-02-23T04:22:32.599Z,8.73
2023-02-23T04:23:32.619Z,8.71
2023-02-23T04:24:32.569Z,8.70
2023-02-23T04:25:32.601Z,8.71
2023-02-23T04:26:32.556Z,8.71
2023-02-23T04:27:32.541Z,8.70
2023-02-23T04:28:32.558Z,8.70
2023-02-23T04:29:32.517Z,8.69
2023-02-23T04:30:32.527Z,8.69
2023-02-23T04:31:32.583Z,8.69
2023-02-23T04:32:32.616Z,8.67
2023-02-23T04:33:32.486Z,8.67
2023-02-23T04:34:32.474Z,8.66
2023-02-23T04:35:32.458Z,8.64
2023-02-23T04:36:32.519Z,8.64
2023-02-23T04:37:32.484Z,8.63
2023-02-23T04:38:32.446Z,8.63
2023-02-23T04:39:32.433Z,8.61
2023-02-23T04:40:32.415Z,8.61
2023-02-23T04:41:32.462Z,8.61
2023-02-23T04:42:32.468Z,8.60
2023-02-23T04:43:32.404Z,8.61
2023-02-23T04:44:32.395Z,8.58
2023-02-23T04:45:32.367Z,8.58
2023-02-23T04:46:32.377Z,8.56
2023-02-23T04:47:32.386Z,8.56
2023-02-23T04:48:32.357Z,8.58
2023-02-23T04:49:32.326Z,8.56
2023-02-23T04:50:32.694Z,8.56
2023-02-23T04:51:32.382Z,8.56
2023-02-23T04:52:32.322Z,8.55
2023-02-23T04:53:32.309Z,8.55
2023-02-23T04:54:32.273Z,8.55
2023-02-23T04:55:32.309Z,8.55
2023-02-23T04:56:32.362Z,8.55
2023-02-23T04:57:32.244Z,8.53
2023-02-23T04:58:32.235Z,8.53
2023-02-23T04:59:32.301Z,8.52
2023-02-23T05:00:32.227Z,8.53
2023-02-23T05:01:32.255Z,8.51
2023-02-23T05:02:32.239Z,8.53
2023-02-23T05:03:32.172Z,8.52
2023-02-23T05:04:32.225Z,8.52
2023-02-23T05:05:32.172Z,8.51
2023-02-23T05:06:32.297Z,8.52
2023-02-23T05:07:32.159Z,8.52
2023-02-23T05:08:32.121Z,8.52
2023-02-23T05:09:32.120Z,8.51
2023-02-23T05:10:32.166Z,8.52
2023-02-23T05:11:32.103Z,8.52
2023-02-23T05:12:32.120Z,8.52
2023-02-23T05:13:32.254Z,8.49
2023-02-23T05:14:32.073Z,8.49
2023-02-23T05:15:32.125Z,8.48
2023-02-23T05:16:32.052Z,8.49
2023-02-23T05:17:32.143Z,8.48
2023-02-23T05:18:32.023Z,8.48
2023-02-23T05:19:32.018Z,8.46
2023-02-23T05:20:32.106Z,8.49
2023-02-23T05:21:31.994Z,8.46
2023-02-23T05:22:32.053Z,8.49
2023-02-23T05:23:32.056Z,8.46
2023-02-23T05:24:31.989Z,8.48
2023-02-23T05:25:31.965Z,8.46
2023-02-23T05:26:31.966Z,8.46
2023-02-23T05:27:31.971Z,8.46
2023-02-23T05:28:31.915Z,8.48
2023-02-23T05:29:31.942Z,8.45
2023-02-23T05:30:31.956Z,8.44
2023-02-23T05:31:32.002Z,8.46
2023-02-23T05:32:31.932Z,8.46
2023-02-23T05:33:31.893Z,8.45
2023-02-23T05:34:31.886Z,8.46
2023-02-23T05:35:31.870Z,8.46
2023-02-23T05:36:31.868Z,8.45
2023-02-23T05:37:31.865Z,8.44
2023-02-23T05:38:31.831Z,8.42
2023-02-23T05:39:31.827Z,8.44
2023-02-23T05:40:31.812Z,8.41
2023-02-23T05:41:31.793Z,8.42
2023-02-23T05:42:31.820Z,8.42
2023-02-23T05:43:31.769Z,8.41
2023-02-23T05:44:31.781Z,8.41
2023-02-23T05:45:31.854Z,8.41
2023-02-23T05:46:31.902Z,8.41
2023-02-23T05:47:31.735Z,8.37
2023-02-23T05:48:31.718Z,8.38
2023-02-23T05:49:31.789Z,8.37
2023-02-23T05:50:31.770Z,8.37
2023-02-23T05:51:31.723Z,8.37
2023-02-23T05:52:31.700Z,8.38
2023-02-23T05:53:31.667Z,8.37
2023-02-23T05:54:31.738Z,8.37
2023-02-23T05:55:31.714Z,8.36
2023-02-23T05:56:31.629Z,8.36
2023-02-23T05:57:31.636Z,8.34
2023-02-23T05:58:31.636Z,8.34
2023-02-23T05:59:31.680Z,8.33
2023-02-23T06:00:31.655Z,8.34
2023-02-23T06:01:31.599Z,8.36
2023-02-23T06:02:31.642Z,8.34
2023-02-23T06:03:31.614Z,8.34
2023-02-23T06:04:31.584Z,8.34
2023-02-23T06:05:31.575Z,8.34
2023-02-23T06:06:31.578Z,8.33
2023-02-23T06:07:31.550Z,8.33
2023-02-23T06:08:31.574Z,8.34
2023-02-23T06:09:31.601Z,8.34
2023-02-23T06:10:31.504Z,8.33
2023-02-23T06:11:31.494Z,8.34
2023-02-23T06:12:31.451Z,8.36
2023-02-23T06:13:31.411Z,8.33
2023-02-23T06:14:31.411Z,8.33
2023-02-23T06:15:31.434Z,8.34
2023-02-23T06:16:31.507Z,8.33
2023-02-23T06:17:31.486Z,8.33
2023-02-23T06:18:31.411Z,8.33
2023-02-23T06:19:31.349Z,8.31
2023-02-23T06:20:31.342Z,8.33
2023-02-23T06:21:31.356Z,8.31
2023-02-23T06:22:31.330Z,8.33
2023-02-23T06:23:31.361Z,8.33
2023-02-23T06:24:31.359Z,8.33
2023-02-23T06:25:31.288Z,8.33
2023-02-23T06:26:31.277Z,8.33
2023-02-23T06:27:31.354Z,8.33
2023-02-23T06:28:31.265Z,8.34
2023-02-23T06:29:31.287Z,8.33
2023-02-23T06:30:31.310Z,8.34
2023-02-23T06:31:31.309Z,8.34
2023-02-23T06:32:31.269Z,8.33
2023-02-23T06:33:31.258Z,8.33
2023-02-23T06:34:31.231Z,8.34
2023-02-23T06:35:31.217Z,8.33
2023-02-23T06:36:31.202Z,8.33
2023-02-23T06:37:31.239Z,8.34
2023-02-23T06:38:31.196Z,8.33
2023-02-23T06:39:31.180Z,8.33
2023-02-23T06:40:31.153Z,8.34
2023-02-23T06:41:31.138Z,8.33
2023-02-23T06:42:31.148Z,8.33
2023-02-23T06:43:31.203Z,8.34
2023-02-23T06:44:31.132Z,8.34
2023-02-23T06:45:32.730Z,8.33
2023-02-23T06:46:31.130Z,8.34
2023-02-23T06:47:31.129Z,8.33
2023-02-23T06:48:31.091Z,8.33
2023-02-23T06:49:31.078Z,8.34
2023-02-23T06:50:31.079Z,8.34
2023-02-23T06:51:31.041Z,8.33
2023-02-23T06:52:31.014Z,8.31
2023-02-23T06:53:31.022Z,8.33
2023-02-23T06:54:31.124Z,8.33
2023-02-23T06:55:31.094Z,8.33
2023-02-23T06:56:31.068Z,8.34
2023-02-23T06:57:30.994Z,8.33
2023-02-23T06:58:31.083Z,8.34
2023-02-23T06:59:30.992Z,8.36
2023-02-23T07:00:30.979Z,8.36
2023-02-23T07:01:31.009Z,8.34
2023-02-23T07:02:30.927Z,8.34
2023-02-23T07:03:30.972Z,8.34
2023-02-23T07:04:30.949Z,8.36
2023-02-23T07:05:30.931Z,8.34
2023-02-23T07:06:30.899Z,8.36
2023-02-23T07:07:30.904Z,8.36
2023-02-23T07:08:30.971Z,8.34
2023-02-23T07:09:30.867Z,8.36
2023-02-23T07:10:30.874Z,8.37
2023-02-23T07:11:30.867Z,8.36
2023-02-23T07:12:30.840Z,8.36
2023-02-23T07:13:30.836Z,8.37
2023-02-23T07:14:30.782Z,8.37
2023-02-23T07:15:30.839Z,8.37
2023-02-23T07:16:30.809Z,8.38
2023-02-23T07:17:30.831Z,8.37
2023-02-23T07:18:30.835Z,8.37
2023-02-23T07:19:30.749Z,8.37
2023-02-23T07:20:30.733Z,8.38
2023-02-23T07:21:30.769Z,8.34
2023-02-23T07:22:31.171Z,8.36
2023-02-23T07:23:30.810Z,8.36
2023-02-23T07:24:31.138Z,8.34
2023-02-23T07:25:31.704Z,8.33
2023-02-23T07:26:31.208Z,8.36
2023-02-23T07:27:30.986Z,8.34
2023-02-23T07:28:30.869Z,8.36
2023-02-23T07:29:30.726Z,8.36
2023-02-23T07:30:30.694Z,8.36
2023-02-23T07:31:30.893Z,8.34
2023-02-23T07:32:30.832Z,8.34
2023-02-23T07:33:30.591Z,8.34
2023-02-23T07:34:30.585Z,8.36
2023-02-23T07:35:30.588Z,8.33
2023-02-23T07:36:30.601Z,8.34
2023-02-23T07:37:30.583Z,8.33
2023-02-23T07:38:30.557Z,8.33
2023-02-23T07:39:30.554Z,8.33
2023-02-23T07:40:30.523Z,8.33
2023-02-23T07:41:30.531Z,8.31
2023-02-23T07:42:30.541Z,8.31
2023-02-23T07:43:30.585Z,8.33
2023-02-23T07:44:30.501Z,8.28
2023-02-23T07:45:30.560Z,8.27
2023-02-23T07:46:30.510Z,8.24
2023-02-23T07:47:30.486Z,8.20
2023-02-23T07:48:30.472Z,8.20
2023-02-23T07:49:30.521Z,8.23
2023-02-23T07:50:30.427Z,8.20
2023-02-23T07:51:30.417Z,8.20
2023-02-23T07:52:30.444Z,8.23
2023-02-23T07:53:30.478Z,8.20
2023-02-23T07:54:30.384Z,8.23
2023-02-23T07:55:30.394Z,8.20
2023-02-23T07:56:30.407Z,8.20
2023-02-23T07:57:30.363Z,8.19
2023-02-23T07:58:30.345Z,8.16
2023-02-23T07:59:30.425Z,8.16
2023-02-23T08:00:30.348Z,8.18
2023-02-23T08:01:30.426Z,8.18
2023-02-23T08:02:30.297Z,8.19
2023-02-23T08:03:30.361Z,8.16
2023-02-23T08:04:30.299Z,8.18
2023-02-23T08:05:30.331Z,8.19
2023-02-23T08:06:30.286Z,8.18
2023-02-23T08:07:30.606Z,8.18
2023-02-23T08:08:30.244Z,8.16
2023-02-23T08:09:30.332Z,8.19
2023-02-23T08:10:30.251Z,8.19
2023-02-23T08:11:30.243Z,8.19
2023-02-23T08:12:30.218Z,8.20
2023-02-23T08:13:30.238Z,8.20
2023-02-23T08:14:30.202Z,8.23
2023-02-23T08:15:30.202Z,8.20
2023-02-23T08:16:30.211Z,8.23
2023-02-23T08:17:30.166Z,8.23
2023-02-23T08:18:30.168Z,8.24
2023-02-23T08:19:30.140Z,8.27
2023-02-23T08:20:30.120Z,8.27
2023-02-23T08:21:30.127Z,8.28
2023-02-23T08:22:35.537Z,8.30
2023-02-23T08:23:30.114Z,8.31
2023-02-23T08:24:30.093Z,8.31
2023-02-23T08:25:30.074Z,8.30
2023-02-23T08:26:30.058Z,8.33
2023-02-23T08:27:30.062Z,8.31
2023-02-23T08:28:30.082Z,8.31
2023-02-23T08:29:30.061Z,8.33
2023-02-23T08:30:30.060Z,8.31
2023-02-23T08:31:30.153Z,8.31
2023-02-23T08:32:30.068Z,8.31
2023-02-23T08:33:30.031Z,8.34
2023-02-23T08:34:30.018Z,8.34
2023-02-23T08:35:30.003Z,8.34
2023-02-23T08:36:29.965Z,8.33
2023-02-23T08:37:30.103Z,8.31
2023-02-23T08:38:29.943Z,8.30
2023-02-23T08:39:29.955Z,8.31
2023-02-23T08:40:29.911Z,8.28
2023-02-23T08:41:29.927Z,8.27
2023-02-23T08:42:29.897Z,8.27
2023-02-23T08:43:29.903Z,8.26
2023-02-23T08:44:29.875Z,8.27
2023-02-23T08:45:29.896Z,8.23
2023-02-23T08:46:29.888Z,8.23
2023-02-23T08:47:30.555Z,8.23
2023-02-23T08:48:29.882Z,8.20
2023-02-23T08:49:29.820Z,8.20
2023-02-23T08:50:29.862Z,8.20
2023-02-23T08:51:29.849Z,8.20
2023-02-23T08:52:29.800Z,8.20
2023-02-23T08:53:29.900Z,8.19
2023-02-23T08:54:29.759Z,8.19
2023-02-23T08:55:29.867Z,8.18
2023-02-23T08:56:29.827Z,8.16
2023-02-23T08:57:29.792Z,8.16
2023-02-23T08:58:29.723Z,8.15
2023-02-23T08:59:29.740Z,8.13
2023-02-23T09:00:29.715Z,8.13
2023-02-23T09:01:29.721Z,8.13
2023-02-23T09:02:29.770Z,8.12
2023-02-23T09:03:29.709Z,8.09
2023-02-23T09:04:29.695Z,8.12
2023-02-23T09:05:29.700Z,8.09
2023-02-23T09:06:29.772Z,8.09
2023-02-23T09:07:29.639Z,8.09
2023-02-23T09:08:29.651Z,8.09
2023-02-23T09:09:29.662Z,8.12
2023-02-23T09:10:29.620Z,8.12
2023-02-23T09:11:29.600Z,8.10
2023-02-23T09:12:29.633Z,8.16
2023-02-23T09:13:29.571Z,8.16
2023-02-23T09:14:29.607Z,8.16
2023-02-23T09:15:29.641Z,8.23
2023-02-23T09:16:29.550Z,8.27
2023-02-23T09:17:29.531Z,8.30
2023-02-23T09:18:29.533Z,8.34
2023-02-23T09:19:29.545Z,8.38
2023-02-23T09:20:29.539Z,8.41
2023-02-23T09:21:29.501Z,8.44
2023-02-23T09:22:29.559Z,8.46
2023-02-23T09:23:29.517Z,8.45
2023-02-23T09:24:29.462Z,8.46
2023-02-23T09:25:29.555Z,8.45
2023-02-23T09:26:29.481Z,8.48
2023-02-23T09:27:29.446Z,8.45
2023-02-23T09:28:30.251Z,8.42
2023-02-23T09:29:29.405Z,8.41
2023-02-23T09:30:29.418Z,8.38
2023-02-23T09:31:29.517Z,8.37
2023-02-23T09:32:29.497Z,8.36
2023-02-23T09:33:29.378Z,8.36
2023-02-23T09:34:29.427Z,8.36
2023-02-23T09:35:29.347Z,8.34
2023-02-23T09:36:29.361Z,8.34
2023-02-23T09:37:29.378Z,8.33
2023-02-23T09:38:29.351Z,8.30
2023-02-23T09:39:38.008Z,8.28
2023-02-23T09:40:29.307Z,8.27
2023-02-23T09:41:29.301Z,8.23
2023-02-23T09:42:29.309Z,8.18
2023-02-23T09:43:29.303Z,8.13
2023-02-23T09:44:29.272Z,8.09
2023-02-23T09:45:29.238Z,8.05
2023-02-23T09:46:29.353Z,8.01
2023-02-23T09:47:29.235Z,8.00
2023-02-23T09:48:29.237Z,7.98
2023-02-23T09:49:29.237Z,7.98
2023-02-23T09:50:29.221Z,8.00
2023-02-23T09:51:29.225Z,7.98
2023-02-23T09:52:29.216Z,8.00
2023-02-23T09:53:29.215Z,7.97
2023-02-23T09:54:29.175Z,8.00
2023-02-23T09:55:29.150Z,8.01
2023-02-23T09:56:29.177Z,8.05
2023-02-23T09:57:29.159Z,8.05
2023-02-23T09:58:29.170Z,8.06
2023-02-23T09:59:29.132Z,8.08
2023-02-23T10:00:29.092Z,8.09
2023-02-23T10:01:29.212Z,8.10
2023-02-23T10:02:29.089Z,8.10
2023-02-23T10:03:29.086Z,8.12
2023-02-23T10:04:29.171Z,8.12
2023-02-23T10:05:29.071Z,8.12
2023-02-23T10:06:29.049Z,8.12
2023-02-23T10:07:29.097Z,8.12
2023-02-23T10:08:29.022Z,8.10
2023-02-23T10:09:29.013Z,8.10
2023-02-23T10:10:29.044Z,8.10
2023-02-23T10:11:28.994Z,8.08
2023-02-23T10:12:29.023Z,8.09
2023-02-23T10:13:29.003Z,8.06
2023-02-23T10:14:29.022Z,8.09
2023-02-23T10:15:28.988Z,8.12
2023-02-23T10:16:29.003Z,8.12
2023-02-23T10:17:29.018Z,8.16
2023-02-23T10:18:45.243Z,8.19
2023-02-23T10:19:28.940Z,8.24
2023-02-23T10:20:28.926Z,8.24
2023-02-23T10:21:28.876Z,8.27
2023-02-23T10:22:28.899Z,8.30
2023-02-23T10:23:31.193Z,8.31
2023-02-23T10:24:28.872Z,8.33
2023-02-23T10:25:28.909Z,8.33
2023-02-23T10:26:28.869Z,8.33
2023-02-23T10:27:28.860Z,8.34
2023-02-23T10:28:28.844Z,8.37
2023-02-23T10:29:28.867Z,8.41
2023-02-23T10:30:28.867Z,8.46
2023-02-23T10:31:28.952Z,8.51
2023-02-23T10:32:28.826Z,8.46
2023-02-23T10:33:29.091Z,8.45
2023-02-23T10:34:28.838Z,8.44
2023-02-23T10:35:28.781Z,8.41
2023-02-23T10:36:29.213Z,8.41
2023-02-23T10:37:28.756Z,8.42
2023-02-23T10:38:28.759Z,8.41
2023-02-23T10:39:28.706Z,8.46
2023-02-23T10:40:29.039Z,8.45
2023-02-23T10:41:28.681Z,8.45
2023-02-23T10:42:29.107Z,8.48
2023-02-23T10:43:29.070Z,8.49
2023-02-23T10:44:28.673Z,8.49
2023-02-23T10:45:28.696Z,8.51
2023-02-23T10:46:28.665Z,8.52
2023-02-23T10:47:28.784Z,8.53
2023-02-23T10:48:28.852Z,8.53
2023-02-23T10:49:29.047Z,8.52
2023-02-23T10:50:28.608Z,8.52
2023-02-23T10:51:28.562Z,8.51
2023-02-23T10:52:28.553Z,8.51
2023-02-23T10:53:28.548Z,8.51
2023-02-23T10:54:28.562Z,8.48
2023-02-23T10:55:28.755Z,8.49
2023-02-23T10:56:28.544Z,8.51
2023-02-23T10:57:28.924Z,8.55
2023-02-23T10:58:28.843Z,8.55
2023-02-23T10:59:28.822Z,8.58
2023-02-23T11:00:28.903Z,8.60
2023-02-23T11:01:28.890Z,8.58
2023-02-23T11:02:28.598Z,8.60
2023-02-23T11:03:28.756Z,8.58
2023-02-23T11:04:28.662Z,8.58
2023-02-23T11:05:28.803Z,8.56
2023-02-23T11:06:28.927Z,8.56
2023-02-23T11:07:28.744Z,8.55
2023-02-23T11:08:28.572Z,8.55
2023-02-23T11:09:43.899Z,8.55
2023-02-23T11:10:28.438Z,8.52
2023-02-23T11:11:28.702Z,8.49
2023-02-23T11:12:28.537Z,8.45
2023-02-23T11:13:28.579Z,8.42
2023-02-23T11:14:28.931Z,8.38
2023-02-23T11:15:46.528Z,8.38
2023-02-23T11:16:29.005Z,8.36
2023-02-23T11:17:28.718Z,8.36
2023-02-23T11:18:28.458Z,8.36
2023-02-23T11:19:28.308Z,8.34
2023-02-23T11:20:28.275Z,8.31
2023-02-23T11:21:28.273Z,8.28
2023-02-23T11:22:28.327Z,8.28
2023-02-23T11:23:28.299Z,8.27
2023-02-23T11:24:29.100Z,8.27
2023-02-23T11:25:28.244Z,8.23
2023-02-23T11:26:28.234Z,8.20
2023-02-23T11:27:28.214Z,8.18
2023-02-23T11:28:28.242Z,8.16
2023-02-23T11:29:28.181Z,8.16
2023-02-23T11:30:28.173Z,8.15
2023-02-23T11:31:28.206Z,8.15
2023-02-23T11:32:28.393Z,8.18
2023-02-23T11:33:28.125Z,8.16
2023-02-23T11:34:28.144Z,8.16
2023-02-23T11:35:28.163Z,8.18
2023-02-23T11:36:28.151Z,8.20
2023-02-23T11:37:28.099Z,8.23
2023-02-23T11:38:28.137Z,8.24
2023-02-23T11:39:28.102Z,8.27
2023-02-23T11:40:28.071Z,8.27
2023-02-23T11:41:28.103Z,8.30
2023-02-23T11:42:28.067Z,8.34
2023-02-23T11:43:28.039Z,8.36
2023-02-23T11:44:28.079Z,8.38
2023-02-23T11:45:28.014Z,8.44
2023-02-23T11:46:28.168Z,8.45
2023-02-23T11:47:28.000Z,8.45
2023-02-23T11:48:28.005Z,8.46
2023-02-23T11:49:28.023Z,8.48
2023-02-23T11:50:27.979Z,8.49
2023-02-23T11:51:27.967Z,8.51
2023-02-23T11:52:27.973Z,8.53
2023-02-23T11:53:27.938Z,8.52
2023-02-23T11:54:28.575Z,8.52
2023-02-23T11:55:27.924Z,8.53
2023-02-23T11:56:27.907Z,8.56
2023-02-23T11:57:27.889Z,8.60
2023-02-23T11:58:27.906Z,8.63
2023-02-23T11:59:28.070Z,8.64
2023-02-23T12:00:27.923Z,8.64
2023-02-23T12:01:27.879Z,8.69
2023-02-23T12:02:27.858Z,8.70
2023-02-23T12:03:27.846Z,8.76
2023-02-23T12:04:27.865Z,8.71
2023-02-23T12:05:27.844Z,8.71
2023-02-23T12:06:27.921Z,8.76
2023-02-23T12:07:27.788Z,8.81
2023-02-23T12:08:27.847Z,8.85
2023-02-23T12:09:27.796Z,8.91
2023-02-23T12:10:27.814Z,8.92
2023-02-23T12:11:27.759Z,8.99
2023-02-23T12:12:27.789Z,9.02
2023-02-23T12:13:27.750Z,9.10
2023-02-23T12:14:27.801Z,9.13
2023-02-23T12:15:27.797Z,9.16
2023-02-23T12:16:27.784Z,9.19
2023-02-23T12:17:27.696Z,9.25
2023-02-23T12:18:27.732Z,9.28
2023-02-23T12:19:27.697Z,9.22
2023-02-23T12:20:27.689Z,9.21
2023-02-23T12:21:27.728Z,9.16
2023-02-23T12:22:27.664Z,9.13
2023-02-23T12:23:27.634Z,9.08
2023-02-23T12:24:27.641Z,9.03
2023-02-23T12:25:27.658Z,9.00
2023-02-23T12:26:27.653Z,8.99
2023-02-23T12:27:27.618Z,8.92
2023-02-23T12:28:27.598Z,8.87
2023-02-23T12:29:27.573Z,8.85
2023-02-23T12:30:27.573Z,8.81
2023-02-23T12:31:27.680Z,8.74
2023-02-23T12:32:27.815Z,8.70
2023-02-23T12:33:27.535Z,8.66
2023-02-23T12:34:27.580Z,8.64
2023-02-23T12:35:29.508Z,8.61
2023-02-23T12:36:27.690Z,8.58
2023-02-23T12:37:27.476Z,8.56
2023-02-23T12:38:27.549Z,8.55
2023-02-23T12:39:27.462Z,8.55
2023-02-23T12:40:27.479Z,8.52
2023-02-23T12:41:27.632Z,8.53
2023-02-23T12:42:27.448Z,8.53
2023-02-23T12:43:27.462Z,8.53
2023-02-23T12:44:27.490Z,8.55
2023-02-23T12:45:27.566Z,8.55
2023-02-23T12:46:27.463Z,8.60
2023-02-23T12:47:27.394Z,8.63
2023-02-23T12:48:27.395Z,8.64
2023-02-23T12:49:27.367Z,8.66
2023-02-23T12:50:27.380Z,8.69
2023-02-23T12:51:27.375Z,8.69
2023-02-23T12:52:27.352Z,8.71
2023-02-23T12:53:27.337Z,8.70
2023-02-23T12:54:27.404Z,8.71
2023-02-23T12:55:27.291Z,8.70
2023-02-23T12:56:27.302Z,8.67
2023-02-23T12:57:27.284Z,8.63
2023-02-23T12:58:27.338Z,8.61
2023-02-23T12:59:27.264Z,8.60
2023-02-23T13:00:27.275Z,8.58
2023-02-23T13:01:27.373Z,8.53
2023-02-23T13:02:27.327Z,8.52
2023-02-23T13:03:27.244Z,8.52
2023-02-23T13:04:27.276Z,8.53
2023-02-23T13:05:27.228Z,8.55
2023-02-23T13:06:27.193Z,8.56
2023-02-23T13:07:27.255Z,8.60
2023-02-23T13:08:27.192Z,8.60
2023-02-23T13:09:27.168Z,8.60
2023-02-23T13:10:27.198Z,8.58
2023-02-23T13:11:27.175Z,8.60
2023-02-23T13:12:27.193Z,8.60
2023-02-23T13:13:27.133Z,8.60
2023-02-23T13:14:27.159Z,8.58
2023-02-23T13:15:27.173Z,8.56
2023-02-23T13:16:27.268Z,8.56
2023-02-23T13:17:27.097Z,8.55
2023-02-23T13:18:27.078Z,8.55